createdAt,value
2018-05-26T00:00:23.042Z,5.03
2018-05-26T00:03:25.567Z,4.60
2018-05-26T00:06:28.021Z,4.60
2018-05-26T00:09:30.503Z,5.37
2018-05-26T00:12:33.013Z,5.33
2018-05-26T00:15:35.597Z,4.80
2018-05-26T00:18:38.054Z,4.97
2018-05-26T00:21:40.637Z,4.30
2018-05-26T00:24:43.197Z,4.43
2018-05-26T00:27:45.664Z,4.53
2018-05-26T00:30:48.122Z,4.60
2018-05-26T00:33:50.590Z,4.97
2018-05-26T00:36:53.061Z,5.00
2018-05-26T00:39:55.536Z,4.30
2018-05-26T00:42:58.006Z,4.63
2018-05-26T00:46:00.518Z,5.50
2018-05-26T00:49:02.988Z,4.80
2018-05-26T00:52:05.513Z,4.90
2018-05-26T00:55:08.115Z,5.00
2018-05-26T00:58:10.622Z,4.73
2018-05-26T01:01:13.073Z,4.97
2018-05-26T01:04:15.569Z,4.77
2018-05-26T01:07:18.046Z,5.00
2018-05-26T01:10:20.572Z,5.17
2018-05-26T01:13:23.134Z,4.73
2018-05-26T01:16:25.622Z,4.80
2018-05-26T01:19:28.118Z,5.37
2018-05-26T01:22:30.580Z,5.40
2018-05-26T01:25:33.083Z,5.07
2018-05-26T01:28:35.628Z,5.03
2018-05-26T01:31:38.072Z,5.67
2018-05-26T01:34:40.551Z,4.60
2018-05-26T01:37:43.068Z,4.80
2018-05-26T01:40:45.538Z,5.20
2018-05-26T01:43:48.038Z,5.37
2018-05-26T01:46:50.551Z,5.80
2018-05-26T01:49:53.018Z,5.00
2018-05-26T01:52:55.502Z,4.83
2018-05-26T01:55:57.979Z,5.70
2018-05-26T01:59:00.587Z,5.40
2018-05-26T02:02:03.064Z,5.07
2018-05-26T02:05:05.624Z,4.90
2018-05-26T02:08:08.080Z,5.03
2018-05-26T02:11:10.524Z,5.97
2018-05-26T02:14:13.028Z,5.07
2018-05-26T02:17:15.570Z,5.70
2018-05-26T02:20:18.004Z,5.30
2018-05-26T02:23:20.592Z,5.00
2018-05-26T02:26:23.169Z,5.53
2018-05-26T02:29:25.723Z,5.20
2018-05-26T02:32:28.160Z,4.97
2018-05-26T02:35:30.642Z,5.50
2018-05-26T02:38:33.100Z,5.30
2018-05-26T02:41:35.664Z,5.53
2018-05-26T02:44:38.169Z,5.27
2018-05-26T02:47:40.710Z,5.33
2018-05-26T02:50:43.241Z,5.33
2018-05-26T02:53:45.742Z,5.57
2018-05-26T02:56:48.278Z,5.83
2018-05-26T02:59:50.737Z,5.33
2018-05-26T03:02:53.210Z,5.60
2018-05-26T03:06:01.284Z,5.80
2018-05-26T03:09:09.292Z,6.00
2018-05-26T03:12:17.288Z,5.67
2018-05-26T03:15:19.310Z,6.17
2018-05-26T03:18:21.793Z,5.40
2018-05-26T03:21:24.333Z,5.77
2018-05-26T03:24:26.827Z,5.80
2018-05-26T03:27:29.308Z,5.60
2018-05-26T03:30:31.778Z,5.30
2018-05-26T03:33:34.285Z,5.30
2018-05-26T03:36:36.840Z,5.00
2018-05-26T03:39:39.397Z,5.47
2018-05-26T03:42:41.859Z,5.23
2018-05-26T03:45:44.360Z,6.07
2018-05-26T03:48:46.864Z,5.93
2018-05-26T03:51:49.338Z,5.90
2018-05-26T03:58:55.619Z,5.63
2018-05-26T04:01:58.108Z,6.20
2018-05-26T04:05:00.559Z,6.03
2018-05-26T04:08:03.003Z,5.20
2018-05-26T04:11:05.469Z,6.00
2018-05-26T04:14:07.955Z,5.80
2018-05-26T04:17:10.388Z,5.70
2018-05-26T04:20:12.884Z,6.13
2018-05-26T04:23:15.350Z,5.70
2018-05-26T04:26:17.799Z,5.97
2018-05-26T04:29:20.478Z,6.60
2018-05-26T04:32:22.933Z,6.00
2018-05-26T04:35:25.472Z,5.90
2018-05-26T04:38:27.914Z,6.07
2018-05-26T04:41:30.347Z,5.83
2018-05-26T04:44:32.821Z,6.33
2018-05-26T04:47:35.352Z,5.93
2018-05-26T04:50:37.899Z,5.60
2018-05-26T04:53:40.344Z,5.70
2018-05-26T04:56:42.824Z,5.83
2018-05-26T04:59:45.284Z,5.40
2018-05-26T05:02:47.765Z,6.40
2018-05-26T05:05:50.202Z,6.00
2018-05-26T05:08:52.689Z,6.30
2018-05-26T05:11:55.225Z,5.90
2018-05-26T05:14:57.701Z,6.10
2018-05-26T05:18:00.201Z,6.00
2018-05-26T05:21:02.713Z,5.90
2018-05-26T05:24:05.215Z,6.60
2018-05-26T05:27:07.778Z,6.10
2018-05-26T05:30:10.285Z,6.10
2018-05-26T05:33:12.771Z,5.83
2018-05-26T05:36:15.240Z,6.10
2018-05-26T05:39:17.783Z,6.10
2018-05-26T05:42:20.245Z,5.97
2018-05-26T05:45:22.710Z,5.63
2018-05-26T05:48:25.223Z,6.73
2018-05-26T05:51:27.729Z,6.10
2018-05-26T05:54:30.304Z,6.30
2018-05-26T05:57:32.891Z,6.10
2018-05-26T06:00:35.355Z,5.87
2018-05-26T06:03:37.874Z,6.07
2018-05-26T06:06:40.436Z,6.20
2018-05-26T06:09:42.972Z,6.17
2018-05-26T06:12:45.460Z,6.70
2018-05-26T06:15:47.980Z,6.00
2018-05-26T06:18:50.461Z,5.63
2018-05-26T06:21:52.945Z,5.60
2018-05-26T06:24:55.505Z,5.63
2018-05-26T06:27:57.947Z,6.10
2018-05-26T06:31:00.465Z,6.23
2018-05-26T06:34:02.992Z,6.10
2018-05-26T06:37:05.584Z,6.50
2018-05-26T06:40:08.106Z,5.90
2018-05-26T06:43:10.581Z,6.60
2018-05-26T06:46:13.040Z,6.63
2018-05-26T06:49:15.510Z,6.23
2018-05-26T06:52:17.996Z,6.77
2018-05-26T06:55:20.588Z,6.00
2018-05-26T06:58:23.065Z,6.33
2018-05-26T07:01:25.533Z,6.97
2018-05-26T07:04:28.107Z,7.60
2018-05-26T07:07:30.572Z,6.90
2018-05-26T07:10:33.075Z,6.90
2018-05-26T07:13:35.592Z,6.90
2018-05-26T07:16:38.155Z,6.53
2018-05-26T07:19:40.655Z,7.10
2018-05-26T07:22:43.147Z,7.50
2018-05-26T07:25:45.671Z,6.80
2018-05-26T07:28:48.140Z,7.80
2018-05-26T07:31:50.635Z,7.87
2018-05-26T07:34:53.122Z,7.60
2018-05-26T07:37:55.576Z,7.67
2018-05-26T07:40:58.023Z,7.20
2018-05-26T07:44:00.515Z,7.40
2018-05-26T07:47:03.063Z,7.80
2018-05-26T07:50:05.626Z,7.30
2018-05-26T07:53:08.114Z,6.80
2018-05-26T07:56:10.596Z,7.37
2018-05-26T07:59:13.059Z,7.37
2018-05-26T08:02:15.576Z,7.37
2018-05-26T08:05:18.022Z,7.43
2018-05-26T08:08:20.597Z,7.80
2018-05-26T08:11:23.052Z,7.47
2018-05-26T08:14:25.546Z,7.50
2018-05-26T08:17:28.124Z,7.63
2018-05-26T08:20:30.538Z,7.90
2018-05-26T08:23:33.093Z,8.50
2018-05-26T08:26:35.523Z,7.73
2018-05-26T08:29:38.044Z,8.63
2018-05-26T08:32:40.543Z,7.97
2018-05-26T08:35:43.040Z,8.40
2018-05-26T08:38:45.544Z,8.53
2018-05-26T08:41:48.073Z,8.23
2018-05-26T08:44:50.573Z,8.20
2018-05-26T08:47:53.123Z,8.00
2018-05-26T08:50:55.622Z,9.07
2018-05-26T08:53:58.119Z,7.70
2018-05-26T08:57:00.635Z,8.50
2018-05-26T09:00:03.184Z,8.17
2018-05-26T09:03:05.673Z,7.80
2018-05-26T09:06:08.104Z,8.97
2018-05-26T09:09:10.577Z,8.70
2018-05-26T09:12:13.049Z,8.47
2018-05-26T09:15:15.524Z,8.13
2018-05-26T09:18:18.014Z,8.30
2018-05-26T09:21:20.516Z,9.10
2018-05-26T09:24:23.046Z,8.30
2018-05-26T09:27:25.579Z,8.50
2018-05-26T09:30:28.333Z,8.60
2018-05-26T09:33:30.804Z,8.53
2018-05-26T09:36:33.251Z,8.27
2018-05-26T09:39:35.749Z,7.77
2018-05-26T09:42:38.305Z,7.60
2018-05-26T09:45:40.903Z,7.50
2018-05-26T09:48:43.532Z,8.20
2018-05-26T09:51:46.002Z,8.17
2018-05-26T09:54:48.470Z,8.30
2018-05-26T09:57:51.017Z,7.80
2018-05-26T10:00:53.517Z,7.70
2018-05-26T10:03:56.003Z,7.33
2018-05-26T10:06:58.518Z,7.73
2018-05-26T10:10:01.143Z,7.70
2018-05-26T10:13:03.585Z,7.37
2018-05-26T10:16:06.076Z,8.00
2018-05-26T10:19:08.652Z,7.30
2018-05-26T10:22:11.187Z,7.20
2018-05-26T10:25:13.766Z,7.53
2018-05-26T10:28:16.260Z,7.57
2018-05-26T10:31:18.803Z,7.00
2018-05-26T10:34:21.289Z,7.30
2018-05-26T10:37:23.825Z,7.50
2018-05-26T10:40:26.324Z,7.47
2018-05-26T10:43:28.850Z,7.20
2018-05-26T10:46:31.435Z,7.47
2018-05-26T10:49:33.955Z,7.03
2018-05-26T10:52:36.551Z,7.17
2018-05-26T10:55:39.054Z,7.20
2018-05-26T10:58:41.639Z,8.30
2018-05-26T11:01:44.218Z,7.63
2018-05-26T11:04:47.567Z,7.47
2018-05-26T11:07:50.139Z,8.23
2018-05-26T11:10:52.624Z,7.90
2018-05-26T11:13:55.118Z,7.33
2018-05-26T11:16:57.563Z,7.50
2018-05-26T11:20:00.025Z,7.30
2018-05-26T11:23:02.573Z,7.13
2018-05-26T11:26:05.309Z,7.33
2018-05-26T11:29:07.651Z,7.17
2018-05-26T11:32:10.149Z,7.23
2018-05-26T11:35:12.737Z,7.30
2018-05-26T11:38:15.476Z,8.37
2018-05-26T11:41:18.076Z,7.97
2018-05-26T11:44:20.619Z,7.20
2018-05-26T11:47:23.148Z,6.67
2018-05-26T11:50:25.651Z,7.07
2018-05-26T11:53:29.039Z,7.47
2018-05-26T11:56:35.804Z,7.20
2018-05-26T11:59:41.084Z,7.23
2018-05-26T12:02:43.534Z,7.30
2018-05-26T12:05:46.118Z,6.90
2018-05-26T12:08:48.620Z,7.00
2018-05-26T12:11:51.087Z,6.47
2018-05-26T12:14:53.629Z,6.90
2018-05-26T12:17:56.085Z,7.03
2018-05-26T12:20:58.629Z,6.80
2018-05-26T12:24:01.130Z,6.50
2018-05-26T12:27:03.763Z,6.60
2018-05-26T12:30:08.208Z,8.83
2018-05-26T12:33:10.696Z,7.53
2018-05-26T12:36:13.219Z,7.27
2018-05-26T12:39:15.679Z,6.70
2018-05-26T12:42:18.209Z,6.23
2018-05-26T12:45:20.831Z,6.83
2018-05-26T12:48:23.347Z,6.67
2018-05-26T12:51:26.478Z,6.83
2018-05-26T12:54:29.017Z,6.63
2018-05-26T12:57:31.574Z,6.80
2018-05-26T13:00:34.080Z,7.00
2018-05-26T13:03:36.534Z,6.83
2018-05-26T13:06:39.016Z,6.90
2018-05-26T13:09:41.511Z,6.53
2018-05-26T13:12:44.056Z,6.03
2018-05-26T13:15:46.534Z,6.80
2018-05-26T13:18:49.069Z,7.23
2018-05-26T13:21:51.567Z,6.83
2018-05-26T13:24:54.061Z,6.53
2018-05-26T13:27:56.517Z,6.73
2018-05-26T13:30:59.005Z,6.50
2018-05-26T13:34:01.455Z,6.20
2018-05-26T13:37:04.009Z,6.30
2018-05-26T13:40:06.462Z,6.10
2018-05-26T13:43:09.100Z,6.60
2018-05-26T13:46:11.580Z,6.63
2018-05-26T13:49:14.131Z,6.50
2018-05-26T13:52:16.634Z,6.20
2018-05-26T13:55:19.144Z,6.20
2018-05-26T13:58:21.647Z,6.40
2018-05-26T14:01:24.127Z,6.73
2018-05-26T14:04:26.657Z,6.03
2018-05-26T14:07:29.169Z,6.73
2018-05-26T14:10:31.662Z,6.40
2018-05-26T14:13:34.154Z,6.23
2018-05-26T14:16:36.752Z,5.93
2018-05-26T14:19:39.246Z,6.60
2018-05-26T14:22:41.773Z,6.57
2018-05-26T14:25:44.242Z,6.37
2018-05-26T14:28:46.771Z,6.20
2018-05-26T14:31:49.262Z,5.90
2018-05-26T14:34:51.711Z,6.27
2018-05-26T14:37:54.267Z,6.00
2018-05-26T14:40:56.841Z,5.90
2018-05-26T14:43:59.346Z,6.27
2018-05-26T14:47:01.821Z,5.80
2018-05-26T14:50:04.415Z,6.40
2018-05-26T14:53:06.925Z,6.63
2018-05-26T14:56:09.425Z,6.10
2018-05-26T14:59:12.004Z,5.80
2018-05-26T15:02:14.500Z,6.07
2018-05-26T15:05:17.027Z,6.20
2018-05-26T15:08:19.515Z,6.23
2018-05-26T15:11:22.115Z,5.63
2018-05-26T15:14:24.622Z,6.60
2018-05-26T15:17:27.164Z,5.77
2018-05-26T15:20:29.686Z,5.60
2018-05-26T15:23:33.598Z,5.67
2018-05-26T15:26:36.086Z,5.33
2018-05-26T15:29:38.631Z,6.20
2018-05-26T15:32:41.116Z,5.60
2018-05-26T15:35:43.621Z,6.10
2018-05-26T15:38:46.156Z,5.70
2018-05-26T15:41:48.627Z,5.80
2018-05-26T15:44:51.153Z,5.50
2018-05-26T15:47:53.671Z,6.10
2018-05-26T15:50:56.118Z,5.47
2018-05-26T15:53:58.655Z,5.47
2018-05-26T15:57:01.145Z,5.83
2018-05-26T16:00:03.620Z,5.87
2018-05-26T16:03:06.114Z,5.77
2018-05-26T16:06:08.611Z,5.70
2018-05-26T16:09:11.163Z,5.77
2018-05-26T16:12:13.673Z,5.90
2018-05-26T16:15:16.173Z,6.00
2018-05-26T16:18:18.657Z,6.10
2018-05-26T16:21:21.142Z,6.30
2018-05-26T16:24:23.705Z,5.83
2018-05-26T16:27:26.176Z,5.60
2018-05-26T16:30:28.698Z,5.30
2018-05-26T16:33:31.208Z,5.73
2018-05-26T16:36:33.741Z,6.03
2018-05-26T16:39:36.231Z,6.03
2018-05-26T16:42:38.757Z,5.27
2018-05-26T16:45:41.247Z,6.13
2018-05-26T16:48:43.759Z,5.93
2018-05-26T16:51:46.225Z,4.97
2018-05-26T16:54:48.697Z,5.17
2018-05-26T16:57:51.207Z,5.37
2018-05-26T17:00:53.759Z,5.50
2018-05-26T17:03:56.363Z,6.33
2018-05-26T17:06:58.857Z,5.40
2018-05-26T17:10:01.317Z,5.20
2018-05-26T17:13:03.824Z,5.20
2018-05-26T17:16:06.282Z,5.23
2018-05-26T17:19:08.799Z,4.67
2018-05-26T17:22:11.290Z,4.77
2018-05-26T17:25:13.807Z,5.07
2018-05-26T17:28:16.275Z,5.10
2018-05-26T17:31:18.921Z,4.67
2018-05-26T17:34:21.413Z,4.33
2018-05-26T17:37:23.919Z,4.63
2018-05-26T17:40:26.510Z,4.70
2018-05-26T17:43:29.116Z,4.40
2018-05-26T17:46:31.601Z,4.80
2018-05-26T17:49:34.210Z,4.23
2018-05-26T17:52:36.734Z,4.60
2018-05-26T17:55:39.258Z,5.30
2018-05-26T17:58:41.774Z,5.23
2018-05-26T18:01:44.269Z,4.80
2018-05-26T18:04:46.849Z,5.40
2018-05-26T18:07:49.408Z,4.93
2018-05-26T18:10:51.910Z,5.10
2018-05-26T18:13:54.396Z,5.07
2018-05-26T18:16:56.864Z,5.10
2018-05-26T18:19:59.380Z,5.90
2018-05-26T18:23:01.994Z,5.97
2018-05-26T18:26:04.670Z,6.37
2018-05-26T18:29:07.160Z,5.93
2018-05-26T18:32:09.716Z,6.50
2018-05-26T18:35:12.189Z,6.03
2018-05-26T18:38:14.748Z,6.90
2018-05-26T18:41:17.231Z,6.47
2018-05-26T18:44:19.716Z,6.77
2018-05-26T18:47:22.275Z,7.00
2018-05-26T18:50:24.756Z,6.10
2018-05-26T18:53:27.343Z,6.90
2018-05-26T18:56:30.073Z,6.40
2018-05-26T18:59:32.730Z,6.80
2018-05-26T19:02:35.245Z,7.20
2018-05-26T19:05:37.777Z,7.10
2018-05-26T19:08:40.283Z,6.60
2018-05-26T19:11:42.744Z,7.10
2018-05-26T19:14:45.301Z,6.80
2018-05-26T19:17:47.798Z,7.07
2018-05-26T19:20:50.400Z,7.17
2018-05-26T19:23:52.960Z,7.20
2018-05-26T19:26:55.488Z,6.83
2018-05-26T19:29:58.044Z,7.30
2018-05-26T19:33:00.620Z,7.83
2018-05-26T19:36:03.277Z,7.47
2018-05-26T19:39:05.826Z,7.40
2018-05-26T19:42:08.337Z,7.30
2018-05-26T19:45:10.797Z,7.30
2018-05-26T19:48:13.277Z,7.13
2018-05-26T19:51:15.704Z,7.47
2018-05-26T19:54:18.274Z,8.30
2018-05-26T19:57:20.850Z,8.20
2018-05-26T20:00:23.371Z,7.67
2018-05-26T20:03:25.923Z,8.63
2018-05-26T20:06:28.722Z,8.00
2018-05-26T20:09:31.252Z,7.67
2018-05-26T20:12:33.829Z,7.40
2018-05-26T20:15:36.320Z,7.40
2018-05-26T20:18:38.816Z,7.87
2018-05-26T20:21:41.259Z,7.30
2018-05-26T20:24:43.776Z,7.93
2018-05-26T20:27:46.285Z,7.80
2018-05-26T20:30:48.925Z,7.97
2018-05-26T20:33:51.411Z,7.77
2018-05-26T20:36:53.899Z,8.27
2018-05-26T20:39:56.392Z,7.57
2018-05-26T20:42:58.806Z,7.80
2018-05-26T20:46:01.366Z,7.43
2018-05-26T20:49:03.847Z,8.07
2018-05-26T20:52:06.362Z,8.00
2018-05-26T20:55:08.867Z,7.43
2018-05-26T20:58:11.372Z,7.70
2018-05-26T21:01:13.915Z,6.90
2018-05-26T21:04:16.399Z,6.60
2018-05-26T21:07:18.879Z,6.60
2018-05-26T21:10:21.401Z,6.43
2018-05-26T21:13:24.952Z,7.20
2018-05-26T21:16:31.995Z,6.93
2018-05-26T21:19:36.555Z,7.07
2018-05-26T21:22:40.220Z,6.80
2018-05-26T21:25:42.793Z,7.07
2018-05-26T21:28:45.258Z,7.20
2018-05-26T21:31:48.319Z,8.27
2018-05-26T21:34:50.906Z,7.20
2018-05-26T21:37:53.504Z,8.20
2018-05-26T21:40:55.993Z,8.67
2018-05-26T21:43:59.698Z,8.47
2018-05-26T21:47:02.292Z,7.90
2018-05-26T21:50:04.751Z,8.10
2018-05-26T21:53:07.255Z,7.50
2018-05-26T21:56:10.990Z,7.80
2018-05-26T21:59:13.562Z,8.20
2018-05-26T22:02:16.076Z,8.00
2018-05-26T22:05:18.602Z,7.67
2018-05-26T22:08:21.219Z,6.93
2018-05-26T22:11:23.691Z,7.07
2018-05-26T22:14:26.235Z,6.23
2018-05-26T22:17:28.830Z,6.27
2018-05-26T22:20:31.416Z,8.57
2018-05-26T22:23:33.922Z,7.60
2018-05-26T22:26:36.407Z,7.10
2018-05-26T22:29:38.864Z,6.23
2018-05-26T22:32:41.431Z,6.50
2018-05-26T22:35:43.920Z,5.63
2018-05-26T22:38:46.433Z,6.37
2018-05-26T22:41:48.971Z,6.10
2018-05-26T22:44:51.407Z,6.60
2018-05-26T22:47:53.910Z,6.87
2018-05-26T22:50:56.415Z,5.70
2018-05-26T22:53:58.898Z,5.90
2018-05-26T22:57:01.418Z,6.00
2018-05-26T23:00:03.891Z,6.33
2018-05-26T23:03:06.358Z,6.20
2018-05-26T23:06:08.846Z,5.93
2018-05-26T23:09:11.320Z,5.90
2018-05-26T23:12:13.832Z,6.23
2018-05-26T23:15:16.391Z,6.87
2018-05-26T23:18:18.852Z,7.50
2018-05-26T23:21:21.330Z,5.90
2018-05-26T23:24:23.808Z,6.70
2018-05-26T23:27:26.296Z,7.97
2018-05-26T23:30:28.780Z,10.60
2018-05-26T23:33:31.358Z,7.53
2018-05-26T23:36:33.852Z,6.20
2018-05-26T23:39:36.332Z,6.30
2018-05-26T23:42:38.835Z,11.77
2018-05-26T23:45:41.300Z,9.50
2018-05-26T23:48:43.775Z,7.03
2018-05-26T23:51:46.234Z,6.37
2018-05-26T23:54:48.777Z,7.07
2018-05-26T23:57:51.338Z,6.20
